Data for 09/21/2008

Time Sea-Level Adjusted Pressure Absolute Pressure Temperature Relative Humidity Dew Point   
(mb) (inHg) (mb) (inHg) (C) (F) (%) (C) (F)
00:05 1014 29.94 843 24.89 11 51.7 71 6 42.8
00:10 1014 29.94 843 24.89 11 51.9 72 6.2 43.2
00:15 1014 29.94 843 24.89 11 51.7 73 6.3 43.4
00:20 1014 29.94 843 24.89 10.9 51.7 72 6 42.8
00:25 1014 29.94 843 24.89 10.9 51.7 73 6.3 43.3
00:30 1014 29.94 843 24.89 10.8 51.4 73 6.2 43.1
00:35 1014 29.94 843 24.89 10.7 51.3 74 6.3 43.3
00:40 1014 29.94 843 24.89 10.7 51.2 74 6.2 43.2
00:45 1014 29.94 843 24.89 10.6 51.1 73 6 42.8
00:50 1014 29.94 843 24.89 10.7 51.3 73 6.1 43
00:55 1014 29.94 843 24.89 10.7 51.3 73 6.1 43
01:00 1014 29.94 843 24.89 10.6 51.1 73 6 42.8
01:05 1014 29.94 843 24.89 10.5 50.9 73 5.9 42.6
01:10 1014 29.94 843 24.89 10.6 51 73 5.9 42.7
01:15 1014 29.94 843 24.89 10.5 50.8 73 5.9 42.6
01:20 1014 29.94 843 24.89 10.4 50.8 73 5.8 42.4
01:25 1014 29.94 843 24.89 10.4 50.8 73 5.9 42.6
01:30 1014 29.94 843 24.89 10.2 50.3 74 5.9 42.5
01:35 1014 29.94 843 24.89 10.1 50.3 74 5.8 42.4
01:40 1014 29.94 843 24.89 10 50 75 5.7 42.3
01:45 1014 29.94 843 24.89 10 50 74 5.7 42.2
01:50 1014 29.94 843 24.89 9.9 49.7 73 5.4 41.6
01:55 1014 29.94 843 24.89 9.9 49.7 74 5.5 41.9
02:00 1014 29.94 843 24.89 9.8 49.6 76 5.7 42.3
02:05 1014 29.94 843 24.89 9.7 49.4 75 5.4 41.7
02:10 1014 29.94 843 24.89 9.8 49.6 75 5.6 42
02:15 1014 29.94 843 24.89 9.7 49.4 76 5.7 42.3
02:20 1014 29.94 843 24.89 9.4 48.8 76 5.4 41.6
02:25 1014 29.94 843 24.89 9.7 49.5 75 5.6 42
02:30 1014 29.94 843 24.89 9.7 49.4 75 5.5 42
02:35 1014 29.94 843 24.89 9.9 49.8 76 5.9 42.5
02:40 1014 29.94 843 24.89 9.7 49.4 78 6.1 43
02:45 1014 29.94 843 24.89 9.5 49.1 79 6 42.8
02:50 1014 29.94 843 24.89 9 48.3 80 5.8 42.4
02:55 1014 29.94 843 24.89 8.6 47.6 81 5.6 42.1
03:00 1014 29.94 843 24.89 8.7 47.6 81 5.7 42.2
03:05 1014 29.94 843 24.89 8.7 47.7 81 5.7 42.2
03:10 1014 29.94 843 24.89 8.8 47.8 80 5.6 42
03:15 1014 29.94 843 24.89 8.8 47.8 81 5.6 42.2
03:20 1014 29.94 843 24.89 8.6 47.5 80 5.4 41.8
03:25 1014 29.94 843 24.89 8.7 47.7 80 5.4 41.7
03:30 1014 29.94 843 24.89 8.6 47.4 80 5.4 41.7
03:35 1014 29.94 843 24.89 8.8 47.8 79 5.4 41.7
03:40 1014 29.94 843 24.89 8.6 47.4 80 5.3 41.5
03:45 1014 29.94 843 24.89 8.8 47.8 79 5.4 41.6
03:50 1014 29.94 843 24.89 8.8 47.8 77 5 41
03:55 1014 29.94 843 24.89 9 48.2 77 5.1 41.2
04:00 1014 29.94 843 24.89 9.5 49.2 75 5.3 41.5
04:05 1014 29.94 843 24.89 9.1 48.4 77 5.3 41.6
04:10 1014 29.94 843 24.89 9 48.2 77 5.3 41.5
04:15 1014 29.94 843 24.89 8.5 47.4 78 4.9 40.8
04:20 1014 29.94 843 24.89 9.3 48.7 74 5 40.9
04:25 1014 29.94 843 24.89 8.1 46.6 82 5.2 41.3
04:30 1014 29.94 843 24.89 8.2 46.8 76 4.3 39.7
04:35 1014 29.94 843 24.89 8.7 47.7 77 4.9 40.8
04:40 1014 29.94 843 24.89 8.8 47.8 77 4.9 40.8
04:45 1014 29.94 843 24.89 8.9 48 79 5.4 41.7
04:50 1014 29.94 843 24.89 9.1 48.3 74 4.8 40.6
04:55 1014 29.94 843 24.89 9.1 48.3 78 5.5 41.9
05:00 1014 29.94 843 24.89 8.2 46.8 79 4.9 40.8
05:05 1014 29.94 843 24.89 7.6 45.7 83 4.9 40.8
05:10 1014 29.94 843 24.89 7.3 45.1 84 4.7 40.5
05:15 1014 29.94 843 24.89 7.1 44.7 84 4.6 40.2
05:20 1014 29.94 843 24.89 6.8 44.2 85 4.5 40
05:25 1013 29.91 843 24.89 6.9 44.4 83 4.2 39.6
05:30 1013 29.91 843 24.89 7.5 45.5 82 4.7 40.4
05:35 1013 29.91 843 24.89 7.3 45.1 82 4.5 40
05:40 1013 29.91 843 24.89 7.5 45.5 81 4.5 40
05:45 1013 29.91 843 24.89 7.7 45.9 82 4.8 40.6
05:50 1014 29.94 843 24.89 6.9 44.5 82 4.1 39.5
05:55 1013 29.91 843 24.89 7 44.6 84 4.4 39.9
06:00 1014 29.94 843 24.89 6.7 44.1 84 4.2 39.5
06:05 1014 29.94 843 24.89 7 44.6 83 4.4 39.9
06:10 1014 29.94 843 24.89 7.2 45 82 4.3 39.8
06:15 1013 29.91 843 24.89 7.7 45.8 80 4.4 40
06:20 1014 29.94 843 24.89 7.9 46.2 79 4.5 40.1
06:25 1014 29.94 843 24.89 8.1 46.6 78 4.5 40.1
06:30 1013 29.91 843 24.89 8.3 47 78 4.7 40.5
06:35 1014 29.94 843 24.89 8.2 46.8 78 4.6 40.2
06:40 1013 29.91 843 24.89 8.4 47 78 4.8 40.6
06:45 1013 29.91 843 24.89 8.4 47.1 78 4.8 40.7
06:50 1013 29.91 843 24.89 8.4 47 79 4.9 40.7
06:55 1013 29.91 843 24.89 8.5 47.3 78 4.9 40.8
07:00 1013 29.91 843 24.89 8.4 47.2 78 4.9 40.8
07:05 1013 29.91 843 24.89 8.5 47.2 77 4.8 40.6
07:10 1013 29.91 843 24.89 8.7 47.7 77 4.9 40.9
07:15 1013 29.91 843 24.89 8.6 47.4 79 5.1 41.2
07:20 1013 29.91 843 24.89 8.3 46.9 80 5 40.9
07:25 1013 29.91 843 24.89 8.4 47 76 4.5 40
07:30 1013 29.91 843 24.89 8.5 47.4 78 5 41
07:35 1013 29.91 843 24.89 8.4 47 77 4.6 40.4
07:40 1013 29.91 843 24.89 8.6 47.5 75 4.5 40.1
07:45 1013 29.91 843 24.89 9.2 48.6 72 4.5 40.1
07:50 1013 29.91 843 24.89 9.9 49.9 72 5.1 41.2
07:55 1013 29.91 843 24.89 10 50.1 73 5.4 41.7
08:00 1014 29.94 843 24.89 10 50.1 74 5.6 42
08:05 1014 29.94 843 24.89 9.8 49.6 74 5.4 41.7
08:10 1014 29.94 843 24.89 9.9 49.8 74 5.5 41.9
08:15 1014 29.94 843 24.89 9.9 49.8 74 5.5 41.9
08:20 1014 29.94 843 24.89 9.9 49.8 75 5.7 42.2
08:25 1014 29.94 843 24.89 9.9 49.7 75 5.7 42.2
08:30 1014 29.94 843 24.89 9.9 49.7 76 5.8 42.4
08:35 1014 29.94 843 24.89 9.7 49.5 78 6 42.9
08:40 1014 29.94 843 24.89 10.1 50.2 76 6.1 43
08:45 1014 29.94 843 24.89 10.8 51.5 71 5.8 42.5
08:50 1014 29.94 843 24.89 11 51.7 73 6.4 43.5
08:55 1014 29.94 843 24.89 11.1 52 70 5.9 42.5
09:00 1014 29.94 843 24.89 11.4 52.5 69 5.9 42.7
09:05 1014 29.94 843 24.89 11.2 52.2 70 6 42.8
09:10 1014 29.94 843 24.89 10.8 51.4 71 5.8 42.4
09:15 1014 29.94 843 24.89 10.9 51.6 70 5.7 42.3
09:20 1014 29.94 843 24.89 10.9 51.6 72 6.1 43.1
09:25 1014 29.94 843 24.89 10.4 50.8 72 5.7 42.2
09:30 1014 29.94 843 24.89 10.5 50.9 72 5.6 42.1
09:35 1014 29.94 843 24.89 10.7 51.3 72 5.9 42.6
09:40 1014 29.94 843 24.89 10.8 51.5 71 5.9 42.6
09:45 1014 29.94 843 24.89 10.9 51.5 71 5.8 42.5
09:50 1014 29.94 843 24.89 11 51.9 69 5.7 42.2
09:55 1014 29.94 843 24.89 11.3 52.3 68 5.6 42
10:00 1014 29.94 843 24.89 11.7 53 65 5.4 41.7
10:05 1014 29.94 843 24.89 12 53.6 63 5.2 41.4
10:10 1014 29.94 843 24.89 12.2 54 63 5.5 41.9
10:15 1014 29.94 843 24.89 12.4 54.4 62 5.5 41.9
10:20 1014 29.94 843 24.89 12.5 54.4 62 5.5 42
10:25 1014 29.94 843 24.89 12.2 53.9 66 6 42.8
10:30 1014 29.94 843 24.89 12.3 54.1 61 5.1 41.2
10:35 1014 29.94 843 24.89 12.5 54.6 59 4.8 40.6
10:40 1014 29.94 843 24.89 13.4 56.2 57 5 41.1
10:45 1014 29.94 843 24.89 13.4 56.1 56 4.8 40.7
10:50 1014 29.94 843 24.89 13 55.4 60 5.5 41.9
10:55 1014 29.94 843 24.89 13.2 55.8 58 5.2 41.3
11:00 1014 29.94 843 24.89 13.5 56.2 59 5.6 42.1
11:05 1014 29.94 843 24.89 13.1 55.6 60 5.5 42
11:10 1014 29.94 843 24.89 13 55.5 59 5.3 41.5
11:15 1014 29.94 843 24.89 12.9 55.3 58 4.9 40.9
11:20 1014 29.94 843 24.89 13 55.3 58 4.9 40.8
11:25 1014 29.94 843 24.89 13.2 55.8 57 5 41.1
11:30 1014 29.94 843 24.89 13.3 56 55 4.5 40.1
11:35 1014 29.94 843 24.89 13.6 56.5 53 4.3 39.8
11:40 1014 29.94 843 24.89 13.9 57 53 4.4 40
11:45 1014 29.94 843 24.89 13.8 56.9 53 4.6 40.2
11:50 1014 29.94 843 24.89 13.9 57.1 53 4.7 40.5
11:55 1014 29.94 843 24.89 14 57.3 47 3.1 37.6
12:00 1014 29.94 843 24.89 14.5 58.1 49 3.9 39.1
12:05 1014 29.94 843 24.89 14.7 58.5 47 3.5 38.3
12:10 1013 29.91 843 24.89 15.3 59.5 45 3.4 38.2
12:15 1013 29.91 843 24.89 15.6 60 43 3 37.4
12:20 1013 29.91 843 24.89 15.5 60 41 2.4 36.4
12:25 1013 29.91 843 24.89 15.5 60 40 2.2 36
12:30 1013 29.91 843 24.89 15.6 60.1 41 2.3 36.2
12:35 1013 29.91 842 24.86 15.8 60.4 40 2.3 36.1
12:40 1013 29.91 842 24.86 15.8 60.5 40 2.5 36.5
12:45 1013 29.91 842 24.86 16 60.8 38 1.9 35.5
12:50 1013 29.91 842 24.86 16.1 60.9 38 2 35.6
12:55 1013 29.91 842 24.86 16.2 61.1 39 2.2 35.9
13:00 1013 29.91 842 24.86 16 60.8 41 2.8 37
13:05 1013 29.91 842 24.86 16.3 61.3 44 4 39.2
13:10 1013 29.91 842 24.86 16.2 61.2 41 3 37.4
13:15 1013 29.91 842 24.86 16.4 61.4 41 3.3 37.9
13:20 1013 29.91 842 24.86 16.3 61.3 42 3.4 38.1
13:25 1013 29.91 842 24.86 16.3 61.3 42 3.4 38.2
13:30 1013 29.91 842 24.86 16.1 60.9 43 3.5 38.4
13:35 1013 29.91 842 24.86 15.9 60.7 42 3.3 37.9
13:40 1013 29.91 842 24.86 15.9 60.6 42 3.3 37.9
13:45 1013 29.91 842 24.86 15.8 60.4 42 2.9 37.3
13:50 1013 29.91 842 24.86 15.9 60.5 39 2.1 35.9
13:55 1013 29.91 842 24.86 15.6 60 42 2.9 37.2
14:00 1013 29.91 842 24.86 15.7 60.3 41 2.7 36.8
14:05 1013 29.91 842 24.86 15.7 60.3 43 3.3 37.9
14:10 1013 29.91 842 24.86 15.8 60.4 40 2.1 35.9
14:15 1013 29.91 842 24.86 15.6 60.2 43 3.1 37.6
14:20 1013 29.91 842 24.86 15.7 60.3 43 3.3 38
14:25 1013 29.91 842 24.86 15.7 60.3 43 3.3 37.9
14:30 1013 29.91 842 24.86 15.6 60 44 3.4 38.1
14:35 1013 29.91 842 24.86 15.8 60.4 42 3 37.4
14:40 1013 29.91 842 24.86 15.7 60.2 43 3.3 37.9
14:45 1013 29.91 842 24.86 15.6 60.1 43 3.3 38
14:50 1013 29.91 842 24.86 15.6 60 44 3.6 38.5
14:55 1013 29.91 842 24.86 15.8 60.4 41 2.5 36.5
15:00 1013 29.91 842 24.86 15.4 59.7 43 2.8 37.1
15:05 1013 29.91 842 24.86 15.1 59.2 44 2.9 37.3
15:10 1013 29.91 842 24.86 14.9 58.9 45 3.2 37.7
15:15 1013 29.91 842 24.86 14.8 58.6 49 4.3 39.7
15:20 1013 29.91 843 24.89 14.5 58 50 4.4 39.9
15:25 1013 29.91 843 24.89 14.4 57.9 49 4 39.1
15:30 1013 29.91 843 24.89 14.5 58.1 49 3.9 39.1
15:35 1013 29.91 843 24.89 14.8 58.6 45 3.2 37.7
15:40 1013 29.91 843 24.89 15 58.9 45 3.3 38
15:45 1013 29.91 843 24.89 15.1 59.1 44 3 37.4
15:50 1013 29.91 843 24.89 15.4 59.6 42 2.7 36.8
15:55 1014 29.94 843 24.89 15.9 60.7 40 2.4 36.3
16:00 1014 29.94 843 24.89 16.3 61.3 39 2.4 36.4
16:05 1014 29.94 843 24.89 16.4 61.5 38 2.2 36
16:10 1013 29.91 843 24.89 16.2 61.2 38 2 35.7
16:15 1013 29.91 843 24.89 16.7 62 38 2.4 36.3
16:20 1013 29.91 843 24.89 17.2 62.9 38 2.9 37.2
16:25 1013 29.91 843 24.89 17.4 63.4 36 2.5 36.5
16:30 1013 29.91 843 24.89 16.4 61.6 39 2.7 36.8
16:35 1013 29.91 843 24.89 16.5 61.7 39 2.5 36.5
16:40 1013 29.91 843 24.89 17 62.6 36 1.9 35.4
16:45 1013 29.91 843 24.89 17.3 63.1 34 1.5 34.6
16:50 1013 29.91 843 24.89 17.2 62.9 36 2.1 35.8
16:55 1013 29.91 843 24.89 17.1 62.8 37 2.2 36
17:00 1013 29.91 843 24.89 17.3 63.2 36 2.2 36
17:05 1013 29.91 843 24.89 17.3 63.1 35 1.7 35
17:10 1013 29.91 843 24.89 17.3 63.2 36 2.1 35.8
17:15 1013 29.91 842 24.86 17.3 63.2 34 1.4 34.5
17:20 1013 29.91 842 24.86 17.1 62.7 34 1.3 34.3
17:25 1013 29.91 842 24.86 17.2 63 34 1.3 34.3
17:30 1013 29.91 843 24.89 17 62.5 36 1.8 35.2
17:35 1013 29.91 843 24.89 16.6 61.8 37 1.9 35.4
17:40 1013 29.91 843 24.89 16.4 61.6 38 2.1 35.8
17:45 1013 29.91 843 24.89 16.2 61.2 38 2 35.5
17:50 1013 29.91 843 24.89 16 60.8 39 2.1 35.7
17:55 1013 29.91 843 24.89 16 60.7 38 1.8 35.2
18:00 1013 29.91 843 24.89 15.9 60.6 39 2 35.6
18:05 1013 29.91 843 24.89 15.5 60 50 5.1 41.2
18:10 1013 29.91 843 24.89 14.8 58.6 52 5.2 41.4
18:15 1013 29.91 843 24.89 14.4 58 53 5.1 41.2
18:20 1013 29.91 843 24.89 14.3 57.7 53 4.9 40.9
18:25 1013 29.91 843 24.89 14.1 57.5 53 4.7 40.4
18:30 1013 29.91 843 24.89 14 57.3 53 4.5 40.2
18:35 1013 29.91 842 24.86 13.9 57 53 4.4 40
18:40 1013 29.91 843 24.89 13.9 57 52 4.3 39.8
18:45 1013 29.91 843 24.89 13.8 56.9 54 4.7 40.4
18:50 1013 29.91 843 24.89 13.7 56.7 52 4.2 39.5
18:55 1013 29.91 843 24.89 13.7 56.6 53 4.3 39.7
19:00 1013 29.91 843 24.89 13.6 56.4 54 4.6 40.3
19:05 1014 29.94 843 24.89 13.5 56.3 54 4.4 40
19:10 1014 29.94 843 24.89 13.5 56.3 54 4.5 40
19:15 1014 29.94 843 24.89 13.4 56.1 54 4.3 39.8
19:20 1014 29.94 843 24.89 13.4 56.1 54 4.3 39.7
19:25 1014 29.94 843 24.89 13.5 56.2 53 4.1 39.4
19:30 1014 29.94 843 24.89 13.5 56.3 54 4.5 40.2
19:35 1014 29.94 843 24.89 13.4 56.1 55 4.5 40.1
19:40 1014 29.94 843 24.89 13.3 56 55 4.4 40
19:45 1014 29.94 843 24.89 13.4 56 54 4.4 40
19:50 1014 29.94 843 24.89 13.4 56 54 4.3 39.7
19:55 1014 29.94 843 24.89 12.9 55.2 58 4.8 40.6
20:00 1014 29.94 843 24.89 12.6 54.8 55 3.8 38.9
20:05 1014 29.94 843 24.89 12.8 55.1 56 4.3 39.7
20:10 1014 29.94 843 24.89 12.5 54.5 58 4.5 40.1
20:15 1014 29.94 843 24.89 12.2 54 59 4.4 40
20:20 1014 29.94 843 24.89 12.1 53.9 58 4.1 39.4
20:25 1014 29.94 843 24.89 12.1 53.8 58 4.1 39.5
20:30 1014 29.94 843 24.89 12.1 53.8 58 4.1 39.3
20:35 1014 29.94 843 24.89 12.3 54.1 56 3.7 38.7
20:40 1014 29.94 843 24.89 12.2 54 57 4 39.1
20:45 1014 29.94 843 24.89 12.1 53.7 57 3.9 39.1
20:50 1014 29.94 843 24.89 11.8 53.2 61 4.6 40.3
20:55 1014 29.94 843 24.89 11.5 52.8 62 4.5 40.1
21:00 1014 29.94 843 24.89 11.8 53.2 61 4.5 40.1
21:05 1014 29.94 843 24.89 11.6 52.9 66 5.4 41.7
21:10 1014 29.94 843 24.89 11.1 52 64 4.6 40.2
21:15 1014 29.94 843 24.89 11.1 52 67 5.2 41.4
21:20 1014 29.94 843 24.89 11.1 52 65 4.9 40.9
21:25 1014 29.94 843 24.89 11.3 52.4 62 4.3 39.7
21:30 1014 29.94 843 24.89 12.2 53.9 50 2 35.6
21:35 1014 29.94 843 24.89 13.1 55.6 48 2.3 36.2
21:40 1014 29.94 844 24.92 13.1 55.6 50 3 37.3
21:45 1014 29.94 844 24.92 12.9 55.2 50 2.9 37.2
21:50 1014 29.94 844 24.92 12.8 55 52 3.2 37.8
21:55 1014 29.94 844 24.92 12.5 54.6 54 3.6 38.4
22:00 1015 29.97 844 24.92 12.3 54.1 56 3.8 38.9
22:05 1015 29.97 844 24.92 12 53.6 57 3.8 38.9
22:10 1015 29.97 844 24.92 12 53.5 58 4.1 39.4
22:15 1015 29.97 844 24.92 11.8 53.2 64 5.2 41.3
22:20 1015 29.97 844 24.92 11.4 52.4 67 5.5 41.9
22:25 1015 29.97 844 24.92 10.9 51.6 69 5.4 41.8
22:30 1015 29.97 844 24.92 10.6 51 69 5.2 41.3
22:35 1015 29.97 844 24.92 10.6 51.1 65 4.3 39.7
22:40 1015 29.97 844 24.92 10.7 51.3 67 4.8 40.7
22:45 1015 29.97 844 24.92 10.4 50.8 70 5.2 41.3
22:50 1014 29.94 844 24.92 10.3 50.5 68 4.6 40.2
22:55 1014 29.94 844 24.92 10.5 50.8 66 4.3 39.8
23:00 1014 29.94 844 24.92 10.4 50.7 69 5.1 41.1
23:05 1014 29.94 844 24.92 10 50.1 69 4.7 40.5
23:10 1014 29.94 844 24.92 9.9 49.8 70 4.7 40.4
23:15 1014 29.94 844 24.92 9.7 49.5 72 4.9 40.7
23:20 1014 29.94 844 24.92 9.7 49.4 71 4.7 40.5
23:25 1015 29.97 844 24.92 9.7 49.5 69 4.4 39.8
23:30 1015 29.97 844 24.92 10 50.1 71 5.1 41.2
23:35 1015 29.97 844 24.92 10 50 73 5.4 41.7
23:40 1015 29.97 844 24.92 9.8 49.7 72 5 41
23:45 1015 29.97 844 24.92 9.9 49.8 71 4.9 40.8
23:50 1015 29.97 844 24.92 10 49.9 71 5 40.9
23:55 1015 29.97 844 24.92 10 49.9 71 4.9 40.8
24:00 1015 29.97 844 24.92 9.9 49.8 71 4.9 40.8